Aérodrome :







RETROUVEZ-NOUS SUR...

 
LOGIN :

S'inscrire | Disclaimer

   EN    FR    IT 

 









Légende :    VFR   VFR Marginal   IFR   IFR Intensif   IFR Très Intensif
Visi : 
Plafond : 
>= 8 km
>= 3000ft
5 à 8 km
1000 à 3000 ft
1500m à 5 km
500 à 1000 ft
800 à 1500m
200 à 500 ft
< 800m
< 200 ft
Symboles :   Orages  Brouillard  Fortes neiges  Fortes précipitations  Vent > 20 kt






- Altitude de l'aérodrome : 92 ft
- Code IATA : YZX


CYZX - CFB Greenwood

DERNIER METAR :
  • 241800Z 21007KT 15SM SKC 10/03 A3000 RMK SLP161

METARs EXPIRÉS :
  • 241700Z 21008KT 15SM SKC 07/M00 A3003 RMK SLP170
  • 241600Z 20006KT 15SM SKC 05/01 A3006 RMK SLP181

TAF TAF CYZX
Valide du 24 à 18h jusqu'au 25 à 18h UTC


241730Z 2418/2518 21008KT P6SM SKC
BECMG 2421/2423 24005KT SCT200
FM250800 VRB03KT P6SM FEW005 BKN200
TEMPO 2508/2512 6SM BR OVC005
FM251200 VRB03KT P6SM SCT010 BKN140
TEMPO 2512/2514 BKN010
FM251400 VRB03KT P6SM BKN140 RMK NXT FCST BY 250000Z



MET'MAP, la Météo Aéronautique d'un coup d'oeil ! - Copyright ORBIFLY Décembre 2007 - Disclaimer

ORBIFLY MET'MAP TEAM :

Programmation & Développement : Alexandra Zaïnal
Sur une idée originale de : Baudouin d'Aumeries
Assistance à la programmation : Marc-Olivier Méhu
Soutien technique & logistique : Manuel Goepfert

Contact : metmap@orbifly.com




SOURCES & CREDITS :

   NOAA